createdAt,value
2022-09-28T17:37:36.948Z,2.47
2022-09-28T17:40:28.630Z,1.77
2022-09-28T17:42:58.225Z,1.77
2022-09-28T17:45:28.722Z,1.90
2022-09-28T17:47:56.293Z,1.52
2022-09-28T17:50:28.268Z,1.80
2022-09-28T17:52:58.045Z,1.50
2022-09-28T17:55:34.882Z,1.63
2022-09-28T17:58:12.552Z,1.83
2022-09-28T18:00:40.902Z,1.50
2022-09-28T18:03:15.422Z,1.60
2022-09-28T18:05:50.362Z,1.65
2022-09-28T18:08:20.278Z,1.40
2022-09-28T18:10:47.922Z,1.63
2022-09-28T18:13:18.693Z,1.58
2022-09-28T18:15:48.950Z,1.92
2022-09-28T18:18:21.879Z,1.50
2022-09-28T18:20:49.239Z,1.38
2022-09-28T18:23:20.055Z,1.48
2022-09-28T18:25:48.228Z,1.50
2022-09-28T18:28:15.450Z,1.55
2022-09-28T18:30:45.023Z,1.60
2022-09-28T18:33:14.640Z,1.70
2022-09-28T18:35:50.408Z,1.50
2022-09-28T18:38:17.548Z,1.60
2022-09-28T18:40:48.513Z,1.33
2022-09-28T18:43:19.378Z,1.70
2022-09-28T18:45:47.439Z,1.60
2022-09-28T18:48:18.268Z,1.48
2022-09-28T18:50:45.485Z,1.40
2022-09-28T18:53:12.995Z,1.60
2022-09-28T18:55:45.183Z,1.33
2022-09-28T18:58:13.058Z,1.55
2022-09-28T19:00:41.547Z,1.50
2022-09-28T19:03:11.391Z,1.33
2022-09-28T19:05:45.470Z,1.30
2022-09-28T19:08:13.956Z,1.63
2022-09-28T19:10:42.395Z,1.38
2022-09-28T19:13:10.063Z,1.50
2022-09-28T19:15:38.093Z,1.40
2022-09-28T19:18:05.327Z,1.80
2022-09-28T19:20:33.664Z,1.42
2022-09-28T19:23:00.839Z,1.27
2022-09-28T19:25:28.087Z,1.40
2022-09-28T19:27:55.222Z,1.40
2022-09-28T19:30:22.335Z,1.42
2022-09-28T19:32:49.535Z,1.38
2022-09-28T19:35:16.974Z,1.52
2022-09-28T19:37:46.836Z,1.30
2022-09-28T19:40:14.037Z,1.40
2022-09-28T19:42:41.183Z,1.50
2022-09-28T19:45:09.009Z,1.45
2022-09-28T19:47:37.858Z,1.40
2022-09-28T19:50:05.307Z,1.50
2022-09-28T19:52:32.349Z,1.67
2022-09-28T19:55:01.169Z,1.27
2022-09-28T19:57:30.695Z,1.48
2022-09-28T20:00:02.175Z,1.17
2022-09-28T20:02:30.258Z,1.40
2022-09-28T20:04:57.355Z,1.20
2022-09-28T20:07:24.473Z,1.45
2022-09-28T20:09:52.003Z,1.00
2022-09-28T20:12:19.104Z,1.40
2022-09-28T20:14:46.336Z,1.13
2022-09-28T20:17:13.440Z,1.20
2022-09-28T20:19:40.707Z,1.30
2022-09-28T20:22:07.821Z,1.15
2022-09-28T20:24:34.887Z,1.30
2022-09-28T20:27:02.833Z,1.50
2022-09-28T20:29:31.908Z,1.25
2022-09-28T20:31:59.288Z,1.10
2022-09-28T20:34:26.541Z,1.10
2022-09-28T20:36:53.643Z,1.15
2022-09-28T20:39:21.117Z,1.50
2022-09-28T20:41:49.263Z,1.17
2022-09-28T20:44:16.588Z,0.93
2022-09-28T20:46:44.521Z,1.42
2022-09-28T20:49:11.734Z,1.25
2022-09-28T20:51:38.751Z,1.27
2022-09-28T20:54:05.964Z,1.50
2022-09-28T20:56:38.990Z,1.02
2022-09-28T20:59:12.054Z,1.10
2022-09-28T21:01:39.421Z,1.30
2022-09-28T21:04:08.110Z,1.27
2022-09-28T21:06:38.080Z,1.30
2022-09-28T21:09:07.016Z,1.23
2022-09-28T21:11:35.880Z,1.20
2022-09-28T21:14:06.537Z,1.20
2022-09-28T21:16:35.223Z,1.13
2022-09-28T21:19:02.932Z,1.20
2022-09-28T21:21:30.139Z,1.10
2022-09-28T21:23:58.215Z,1.20
2022-09-28T21:26:28.155Z,1.40
2022-09-28T21:29:00.836Z,0.85
2022-09-28T21:31:37.070Z,1.30
2022-09-28T21:34:05.277Z,1.05
2022-09-28T21:36:33.178Z,1.42
2022-09-28T21:39:00.434Z,1.00
2022-09-28T21:41:28.871Z,1.30
2022-09-28T21:43:56.069Z,1.02
2022-09-28T21:46:23.311Z,1.35
2022-09-28T21:48:53.921Z,1.40
2022-09-28T21:51:21.940Z,1.13
2022-09-28T21:53:49.559Z,1.17
2022-09-28T21:56:17.543Z,1.08
2022-09-28T21:58:44.719Z,1.42
2022-09-28T22:01:15.696Z,1.30
2022-09-28T22:03:44.821Z,1.23
2022-09-28T22:06:12.181Z,1.42
2022-09-28T22:08:39.808Z,1.20
2022-09-28T22:11:13.501Z,1.50
2022-09-28T22:13:43.289Z,1.35
2022-09-28T22:16:12.356Z,1.70
2022-09-28T22:18:39.938Z,1.10
2022-09-28T22:21:14.199Z,1.30
2022-09-28T22:23:42.411Z,1.08
2022-09-28T22:26:14.747Z,1.25
2022-09-28T22:28:47.361Z,1.40
2022-09-28T22:31:15.489Z,1.58
2022-09-28T22:33:42.680Z,1.40
2022-09-28T22:36:10.364Z,1.27
2022-09-28T22:38:37.840Z,1.52
2022-09-28T22:41:04.962Z,1.50
2022-09-28T22:43:32.123Z,1.38
2022-09-28T22:46:08.314Z,1.60
2022-09-28T22:48:36.105Z,1.50
2022-09-28T22:51:04.774Z,1.52
2022-09-28T22:53:32.346Z,1.52
2022-09-28T22:56:01.601Z,1.25
2022-09-28T22:58:28.829Z,1.67
2022-09-28T23:00:57.459Z,1.60
2022-09-28T23:03:24.677Z,1.63
2022-09-28T23:05:54.357Z,1.90
2022-09-28T23:08:22.372Z,1.75
2022-09-28T23:10:49.765Z,1.75
2022-09-28T23:13:17.267Z,1.92
2022-09-28T23:15:44.472Z,2.42
2022-09-28T23:18:11.595Z,2.35
2022-09-28T23:20:38.677Z,2.05
2022-09-28T23:23:05.720Z,1.83
2022-09-28T23:25:32.868Z,1.92
2022-09-28T23:27:59.946Z,1.70
2022-09-28T23:30:27.108Z,1.80
2022-09-28T23:32:54.199Z,1.67
2022-09-28T23:35:21.294Z,1.70
2022-09-28T23:37:51.959Z,1.75
2022-09-28T23:40:19.176Z,1.87
2022-09-28T23:42:46.327Z,1.90
2022-09-28T23:45:13.450Z,1.63
2022-09-28T23:47:40.578Z,1.52
2022-09-28T23:50:08.110Z,1.60
2022-09-28T23:52:35.392Z,1.52
2022-09-28T23:55:02.645Z,1.27
2022-09-28T23:57:29.690Z,1.70
2022-09-28T23:59:56.708Z,1.60
